Time;durP1;ratioP1;P1;durP2;ratioP2;P2;SDS_P1;SDS_P2;PMS_P1;PMS_P2;Temp;Humidity;BMP_temperature;BMP_pressure;BME280_temperature;BME280_humidity;BME280_pressure;Samples;Min_cycle;Max_cycle;Signal;HPM_P1;HPM_P2
2022/08/17 00:02:08;;;;;;;15.57;5.97;;;;;;;;;;4996242;28;20049;-75
2022/08/17 00:04:34;;;;;;;20.38;6.60;;;;;;;;;;4995974;28;20029;-76
2022/08/17 00:07:00;;;;;;;19.90;6.40;;;;;;;;;;4996739;28;20023;-75
2022/08/17 00:09:26;;;;;;;17.23;6.07;;;;;;;;;;5000156;28;20360;-76
2022/08/17 00:11:52;;;;;;;22.63;6.45;;;;;;;;;;4996517;28;20382;-75
2022/08/17 00:14:18;;;;;;;18.23;6.50;;;;;;;;;;4999167;28;20405;-76
2022/08/17 00:16:47;;;;;;;18.27;6.68;;;;;;;;;;4999929;28;20026;-76
2022/08/17 00:19:14;;;;;;;20.73;6.53;;;;;;;;;;4998764;28;20046;-76
2022/08/17 00:21:42;;;;;;;19.00;7.25;;;;;;;;;;5002752;28;20050;-76
2022/08/17 00:24:08;;;;;;;20.10;6.55;;;;;;;;;;4987129;28;20368;-76
2022/08/17 00:26:34;;;;;;;14.73;7.00;;;;;;;;;;5002493;28;20025;-76
2022/08/17 00:29:01;;;;;;;19.13;6.68;;;;;;;;;;4998365;28;20541;-76
2022/08/17 00:31:27;;;;;;;25.05;7.28;;;;;;;;;;4999039;28;20322;-76
2022/08/17 00:33:53;;;;;;;24.08;7.53;;;;;;;;;;4998466;28;20022;-75
2022/08/17 00:36:20;;;;;;;18.77;7.18;;;;;;;;;;4999229;28;20018;-76
2022/08/17 00:38:46;;;;;;;16.92;6.88;;;;;;;;;;5000605;28;20487;-75
2022/08/17 00:41:17;;;;;;;20.30;7.40;;;;;;;;;;4996173;28;20113;-76
2022/08/17 00:43:48;;;;;;;20.25;7.80;;;;;;;;;;4999770;28;20065;-76
2022/08/17 00:46:17;;;;;;;16.45;7.25;;;;;;;;;;4997026;28;20034;-76
2022/08/17 00:48:43;;;;;;;17.63;6.90;;;;;;;;;;5000663;28;20431;-75
2022/08/17 00:51:28;;;;;;;21.58;7.93;;;;;;;;;;4995053;28;20088;-76
2022/08/17 00:53:58;;;;;;;22.65;7.75;;;;;;;;;;4998654;28;20037;-76
2022/08/17 00:56:28;;;;;;;24.80;7.97;;;;;;;;;;4996001;28;20590;-76
2022/08/17 00:58:54;;;;;;;22.48;8.65;;;;;;;;;;4994515;28;20045;-76
2022/08/17 01:01:21;;;;;;;21.95;7.10;;;;;;;;;;4996018;28;20407;-76
2022/08/17 01:03:47;;;;;;;14.93;7.03;;;;;;;;;;4991575;28;20023;-76
2022/08/17 01:06:14;;;;;;;18.73;6.93;;;;;;;;;;4991563;28;20348;-76
2022/08/17 01:08:40;;;;;;;16.65;7.13;;;;;;;;;;4989016;28;20018;-76
2022/08/17 01:11:07;;;;;;;17.88;7.18;;;;;;;;;;4994259;28;20084;-76
2022/08/17 01:13:35;;;;;;;20.52;7.00;;;;;;;;;;4991001;28;20014;-76
2022/08/17 01:16:05;;;;;;;22.17;6.80;;;;;;;;;;4993056;28;20034;-76
2022/08/17 01:18:32;;;;;;;15.47;6.53;;;;;;;;;;4994581;28;20454;-76
2022/08/17 01:21:02;;;;;;;21.27;6.30;;;;;;;;;;4990490;28;20383;-76
2022/08/17 01:23:29;;;;;;;16.17;6.43;;;;;;;;;;4994118;28;20035;-76
2022/08/17 01:25:57;;;;;;;19.45;7.43;;;;;;;;;;4992566;28;20267;-76
2022/08/17 01:28:24;;;;;;;17.38;7.90;;;;;;;;;;4994716;28;20112;-76
2022/08/17 01:30:50;;;;;;;19.10;7.22;;;;;;;;;;4988173;28;20193;-76
2022/08/17 01:33:17;;;;;;;13.90;6.75;;;;;;;;;;4988356;28;20081;-76
2022/08/17 01:35:43;;;;;;;22.05;7.18;;;;;;;;;;4995663;28;20092;-76
2022/08/17 01:38:09;;;;;;;18.35;6.97;;;;;;;;;;4995334;28;20109;-76
2022/08/17 01:40:38;;;;;;;20.77;7.30;;;;;;;;;;4990897;28;20412;-76
2022/08/17 01:43:14;;;;;;;25.48;6.80;;;;;;;;;;4989271;28;20511;-76
2022/08/17 01:45:44;;;;;;;17.98;6.88;;;;;;;;;;4992381;28;20080;-76
2022/08/17 01:48:11;;;;;;;20.20;7.63;;;;;;;;;;4990558;28;20023;-76
2022/08/17 01:50:39;;;;;;;19.02;7.32;;;;;;;;;;4994417;28;20021;-76
2022/08/17 01:53:10;;;;;;;13.80;7.05;;;;;;;;;;4992811;28;20026;-76
2022/08/17 01:55:36;;;;;;;;;;;;;;;;;;4992604;28;20029;-76
2022/08/17 01:58:07;;;;;;;21.27;7.75;;;;;;;;;;4991164;28;19956;-76
2022/08/17 02:00:34;;;;;;;19.33;7.40;;;;;;;;;;4992036;28;20507;-76
2022/08/17 02:03:00;;;;;;;18.58;6.97;;;;;;;;;;4994355;28;20030;-76
2022/08/17 02:05:26;;;;;;;18.63;7.25;;;;;;;;;;4989281;28;20289;-76
2022/08/17 02:07:52;;;;;;;19.38;6.95;;;;;;;;;;4993009;28;20033;-76
2022/08/17 02:10:19;;;;;;;22.77;7.20;;;;;;;;;;4990690;28;20541;-76
2022/08/17 02:12:45;;;;;;;13.75;6.57;;;;;;;;;;4992369;28;20036;-76
2022/08/17 02:15:13;;;;;;;20.02;6.38;;;;;;;;;;4990103;28;20036;-76
2022/08/17 02:17:40;;;;;;;23.50;7.38;;;;;;;;;;4992411;28;20038;-76
2022/08/17 02:20:07;;;;;;;19.23;6.63;;;;;;;;;;4991664;28;20128;-76
2022/08/17 02:22:35;;;;;;;18.67;6.95;;;;;;;;;;4990708;28;20030;-76
2022/08/17 02:25:01;;;;;;;18.50;6.95;;;;;;;;;;4990920;28;20027;-76
2022/08/17 02:27:28;;;;;;;20.63;7.03;;;;;;;;;;4990043;28;20030;-76
2022/08/17 02:29:54;;;;;;;17.80;6.68;;;;;;;;;;4992955;28;20029;-76
2022/08/17 02:32:22;;;;;;;20.92;7.28;;;;;;;;;;4988158;28;20030;-76
2022/08/17 02:34:48;;;;;;;20.50;6.88;;;;;;;;;;4993311;28;20022;-76
2022/08/17 02:37:17;;;;;;;21.40;7.60;;;;;;;;;;4991745;28;20179;-76
2022/08/17 02:39:46;;;;;;;18.13;6.82;;;;;;;;;;4985435;28;20019;-76
2022/08/17 02:42:13;;;;;;;20.02;6.97;;;;;;;;;;4993040;28;20042;-76
2022/08/17 02:44:40;;;;;;;20.45;6.95;;;;;;;;;;4988933;28;20023;-76
2022/08/17 02:47:06;;;;;;;20.67;7.15;;;;;;;;;;4992685;28;20030;-76
2022/08/17 02:49:33;;;;;;;23.10;7.25;;;;;;;;;;4974461;28;20027;-75
2022/08/17 02:52:01;;;;;;;18.00;6.57;;;;;;;;;;4990346;28;20591;-75
2022/08/17 02:54:28;;;;;;;16.75;7.28;;;;;;;;;;4989018;28;20006;-75
2022/08/17 02:56:54;;;;;;;22.48;7.70;;;;;;;;;;4993110;28;20069;-75
2022/08/17 02:59:20;;;;;;;19.90;6.72;;;;;;;;;;4990432;28;20026;-75
2022/08/17 03:01:46;;;;;;;18.15;6.55;;;;;;;;;;4990066;28;20132;-76
2022/08/17 03:04:12;;;;;;;19.13;7.25;;;;;;;;;;4990897;28;20053;-75
2022/08/17 03:06:38;;;;;;;23.27;7.60;;;;;;;;;;4989666;28;20062;-76
2022/08/17 03:09:05;;;;;;;17.42;7.13;;;;;;;;;;4994988;28;20030;-76
2022/08/17 03:11:31;;;;;;;16.83;7.20;;;;;;;;;;4995409;28;20015;-76
2022/08/17 03:13:58;;;;;;;16.73;7.18;;;;;;;;;;4994599;28;20068;-75
2022/08/17 03:16:24;;;;;;;20.38;7.35;;;;;;;;;;4995212;28;20022;-75
2022/08/17 03:18:50;;;;;;;17.48;7.28;;;;;;;;;;4974566;28;20402;-76
2022/08/17 03:21:16;;;;;;;19.10;7.65;;;;;;;;;;4996119;28;20041;-76
2022/08/17 03:23:42;;;;;;;24.95;7.68;;;;;;;;;;4991063;28;20033;-75
2022/08/17 03:26:09;;;;;;;17.15;6.82;;;;;;;;;;4997677;28;20192;-76
2022/08/17 03:28:36;;;;;;;17.40;7.03;;;;;;;;;;4994565;28;20022;-76
2022/08/17 03:31:03;;;;;;;19.45;6.80;;;;;;;;;;5000002;28;20057;-76
2022/08/17 03:33:29;;;;;;;20.45;7.38;;;;;;;;;;5002066;28;20101;-75
2022/08/17 03:35:55;;;;;;;19.77;7.50;;;;;;;;;;4999418;28;20022;-75
2022/08/17 03:38:22;;;;;;;22.30;7.30;;;;;;;;;;5002030;28;20018;-76
2022/08/17 03:40:48;;;;;;;22.52;7.82;;;;;;;;;;4993851;28;20026;-75
2022/08/17 03:43:15;;;;;;;23.98;7.45;;;;;;;;;;4995717;28;20030;-76
2022/08/17 03:56:54;;;;;;;23.23;8.18;;;;;;;;;;4996123;28;20452;-75
2022/08/17 03:59:22;;;;;;;19.65;7.28;;;;;;;;;;4980440;28;20169;-75
2022/08/17 04:01:50;;;;;;;18.77;7.22;;;;;;;;;;4991783;28;20042;-76
2022/08/17 04:04:16;;;;;;;16.58;7.70;;;;;;;;;;4994279;28;20108;-76
2022/08/17 04:06:43;;;;;;;18.50;7.20;;;;;;;;;;4992910;28;20030;-77
2022/08/17 04:09:09;;;;;;;17.60;8.07;;;;;;;;;;4994644;28;20389;-77
2022/08/17 04:11:36;;;;;;;20.63;7.78;;;;;;;;;;4995757;28;20046;-77
2022/08/17 04:14:02;;;;;;;17.30;8.15;;;;;;;;;;4990932;28;20018;-77
2022/08/17 04:16:29;;;;;;;22.55;8.05;;;;;;;;;;4998780;28;20026;-77
2022/08/17 04:18:55;;;;;;;22.75;7.97;;;;;;;;;;4996002;28;20053;-77
2022/08/17 04:21:21;;;;;;;28.95;8.43;;;;;;;;;;4992101;28;20038;-77
2022/08/17 04:23:47;;;;;;;18.83;7.47;;;;;;;;;;4998839;28;20253;-77
2022/08/17 04:26:14;;;;;;;17.02;8.05;;;;;;;;;;4993730;28;20029;-77
2022/08/17 04:28:41;;;;;;;15.13;7.80;;;;;;;;;;4998616;28;20045;-77
2022/08/17 04:31:08;;;;;;;18.80;8.40;;;;;;;;;;4995827;28;20030;-77
2022/08/17 04:33:36;;;;;;;18.02;8.15;;;;;;;;;;4995753;28;20034;-76
2022/08/17 04:36:04;;;;;;;21.30;8.13;;;;;;;;;;4997223;28;20584;-76
2022/08/17 04:38:32;;;;;;;19.52;8.40;;;;;;;;;;4997712;28;20022;-76
2022/08/17 04:43:44;;;;;;;16.13;8.10;;;;;;;;;;4990866;28;20040;-76
2022/08/17 04:46:13;;;;;;;15.43;7.15;;;;;;;;;;4989702;28;20085;-76
2022/08/17 04:48:41;;;;;;;16.63;7.30;;;;;;;;;;4991165;28;20081;-80
2022/08/17 04:51:13;;;;;;;22.83;8.00;;;;;;;;;;4988529;28;20027;-77
2022/08/17 04:53:40;;;;;;;22.25;8.88;;;;;;;;;;4988573;28;20585;-76
2022/08/17 04:56:07;;;;;;;24.58;8.07;;;;;;;;;;4989186;28;20113;-77
2022/08/17 04:58:33;;;;;;;20.80;8.20;;;;;;;;;;4989210;28;20025;-77
2022/08/17 05:01:00;;;;;;;18.65;8.88;;;;;;;;;;4987685;28;20263;-76
2022/08/17 05:03:26;;;;;;;20.63;8.98;;;;;;;;;;4987813;28;20378;-77
2022/08/17 05:05:52;;;;;;;18.38;8.50;;;;;;;;;;4990691;28;20019;-76
2022/08/17 05:08:19;;;;;;;23.00;9.07;;;;;;;;;;4985463;28;20145;-77
2022/08/17 05:10:46;;;;;;;18.50;7.97;;;;;;;;;;4989934;28;20022;-76
2022/08/17 05:13:18;;;;;;;26.85;8.20;;;;;;;;;;4987012;28;20030;-77
2022/08/17 05:15:45;;;;;;;21.42;8.05;;;;;;;;;;4988874;28;20026;-77
2022/08/17 05:18:11;;;;;;;17.58;8.10;;;;;;;;;;4992846;28;20037;-77
2022/08/17 05:20:38;;;;;;;22.20;8.32;;;;;;;;;;4988406;28;20055;-77
2022/08/17 05:23:06;;;;;;;17.25;7.53;;;;;;;;;;4995025;28;20434;-78
2022/08/17 05:25:35;;;;;;;16.38;8.18;;;;;;;;;;5000129;28;20717;-77
2022/08/17 05:28:02;;;;;;;17.58;8.48;;;;;;;;;;4997247;28;20371;-79
2022/08/17 05:30:28;;;;;;;22.77;8.57;;;;;;;;;;4997164;28;20050;-78
2022/08/17 05:32:55;;;;;;;21.88;8.38;;;;;;;;;;5000647;28;20389;-78
2022/08/17 05:35:22;;;;;;;27.15;8.65;;;;;;;;;;4979813;28;20026;-79
2022/08/17 05:37:49;;;;;;;28.38;10.07;;;;;;;;;;4996517;28;20109;-78
2022/08/17 05:40:16;;;;;;;24.45;8.93;;;;;;;;;;4992951;28;20032;-78
2022/08/17 05:42:42;;;;;;;20.30;8.55;;;;;;;;;;4989234;28;20057;-79
2022/08/17 05:45:09;;;;;;;21.55;8.95;;;;;;;;;;4990396;28;20029;-78
2022/08/17 05:47:36;;;;;;;18.83;8.02;;;;;;;;;;4990068;28;20032;-78
2022/08/17 05:50:03;;;;;;;24.58;8.55;;;;;;;;;;4990004;28;20026;-78
2022/08/17 05:52:44;;;;;;;21.80;9.10;;;;;;;;;;4991136;28;20029;-78
2022/08/17 05:55:13;;;;;;;26.55;8.40;;;;;;;;;;4989737;28;20030;-78
2022/08/17 05:57:42;;;;;;;22.98;8.95;;;;;;;;;;4988246;28;20097;-79
2022/08/17 06:00:26;;;;;;;21.25;9.15;;;;;;;;;;4989413;28;20109;-79
2022/08/17 06:03:19;;;;;;;31.85;9.73;;;;;;;;;;4988739;28;20034;-78
2022/08/17 06:05:51;;;;;;;20.17;8.48;;;;;;;;;;4947449;28;20042;-78
2022/08/17 06:08:17;;;;;;;20.52;8.65;;;;;;;;;;4986607;28;20030;-79
2022/08/17 06:10:47;;;;;;;17.70;8.07;;;;;;;;;;4991929;28;20386;-79
2022/08/17 06:13:17;;;;;;;26.63;8.50;;;;;;;;;;4998429;28;20025;-80
2022/08/17 06:15:43;;;;;;;19.35;8.30;;;;;;;;;;4990842;28;20034;-76
2022/08/17 06:18:10;;;;;;;24.35;9.93;;;;;;;;;;4992126;28;20030;-78
2022/08/17 06:20:45;;;;;;;16.50;9.57;;;;;;;;;;4972383;28;20046;-81
2022/08/17 06:23:32;;;;;;;19.75;9.73;;;;;;;;;;4981339;28;20038;-80
2022/08/17 06:26:02;;;;;;;22.20;11.35;;;;;;;;;;4991450;28;20088;-80
2022/08/17 06:28:35;;;;;;;31.90;12.13;;;;;;;;;;4994993;28;20029;-85
2022/08/17 06:31:05;;;;;;;15.48;9.43;;;;;;;;;;4993133;28;20041;-84
2022/08/17 06:33:34;;;;;;;24.98;9.65;;;;;;;;;;4986806;28;20035;-82
2022/08/17 06:36:01;;;;;;;15.35;8.60;;;;;;;;;;4999347;28;20154;-84
2022/08/17 06:38:46;;;;;;;28.45;9.05;;;;;;;;;;4979502;28;20503;-82
2022/08/17 06:41:19;;;;;;;23.65;9.23;;;;;;;;;;4993940;28;20037;-83
2022/08/17 06:43:50;;;;;;;19.88;9.40;;;;;;;;;;4996182;28;20025;-79
2022/08/17 06:46:21;;;;;;;14.10;8.75;;;;;;;;;;5000990;28;20736;-82
2022/08/17 06:48:51;;;;;;;22.45;8.60;;;;;;;;;;4998410;28;20091;-84
2022/08/17 06:51:27;;;;;;;20.58;8.38;;;;;;;;;;5001765;28;20417;-85
2022/08/17 06:54:04;;;;;;;17.92;8.18;;;;;;;;;;4994326;28;20694;-79
2022/08/17 06:56:33;;;;;;;25.15;9.02;;;;;;;;;;5000944;28;20030;-84
2022/08/17 06:59:00;;;;;;;23.40;8.70;;;;;;;;;;4997604;28;20037;-84
2022/08/17 07:01:29;;;;;;;21.35;7.20;;;;;;;;;;4984543;28;20042;-83
2022/08/17 07:04:03;;;;;;;15.48;6.07;;;;;;;;;;4988340;28;20035;-80
2022/08/17 07:06:33;;;;;;;17.52;5.95;;;;;;;;;;4990938;28;20037;-83
2022/08/17 07:09:07;;;;;;;14.30;5.75;;;;;;;;;;4994948;28;20137;-82
2022/08/17 07:11:39;;;;;;;17.92;5.45;;;;;;;;;;4995940;28;20021;-81
2022/08/17 07:14:17;;;;;;;15.00;6.15;;;;;;;;;;4996906;28;20028;-80
2022/08/17 07:16:49;;;;;;;15.38;5.95;;;;;;;;;;4994446;28;20026;-80
2022/08/17 07:19:16;;;;;;;18.15;6.85;;;;;;;;;;4994133;28;20053;-81
2022/08/17 07:21:57;;;;;;;21.77;5.90;;;;;;;;;;4995524;28;20038;-83
2022/08/17 07:24:24;;;;;;;;;;;;;;;;;;4997252;28;20018;-84
2022/08/17 07:27:03;;;;;;;23.45;6.13;;;;;;;;;;4994705;28;19913;-83
2022/08/17 07:29:31;;;;;;;12.50;5.30;;;;;;;;;;4996807;28;20030;-81
2022/08/17 07:31:58;;;;;;;18.33;5.80;;;;;;;;;;4999292;28;20049;-81
2022/08/17 07:34:24;;;;;;;14.90;4.88;;;;;;;;;;4995350;28;20095;-82
2022/08/17 07:37:01;;;;;;;19.05;5.20;;;;;;;;;;4993740;28;20032;-82
2022/08/17 07:39:28;;;;;;;18.63;5.60;;;;;;;;;;4997536;28;20057;-80
2022/08/17 07:42:01;;;;;;;18.17;5.63;;;;;;;;;;4996849;28;20593;-82
2022/08/17 07:44:27;;;;;;;11.80;5.07;;;;;;;;;;4995708;28;20589;-82
2022/08/17 07:49:40;;;;;;;17.90;5.82;;;;;;;;;;4990545;28;20030;-82
2022/08/17 07:52:32;;;;;;;16.85;5.60;;;;;;;;;;4992293;28;20493;-81
2022/08/17 07:54:59;;;;;;;21.25;5.50;;;;;;;;;;4992224;28;20052;-86
2022/08/17 07:57:26;;;;;;;17.65;5.68;;;;;;;;;;4996792;28;20378;-82
2022/08/17 08:00:01;;;;;;;17.73;5.40;;;;;;;;;;4981438;28;20096;-83
2022/08/17 08:02:37;;;;;;;16.67;5.00;;;;;;;;;;4991777;28;20563;-83
2022/08/17 08:05:08;;;;;;;19.10;5.70;;;;;;;;;;4981560;28;20098;-82
2022/08/17 08:07:49;;;;;;;13.43;5.22;;;;;;;;;;4984456;28;20033;-80
2022/08/17 08:10:31;;;;;;;24.90;6.15;;;;;;;;;;5000229;28;20026;-82
2022/08/17 08:13:07;;;;;;;21.10;5.50;;;;;;;;;;4995570;28;20038;-82
2022/08/17 08:19:15;;;;;;;15.60;5.47;;;;;;;;;;4904310;28;20052;-84
2022/08/17 08:21:41;;;;;;;;;;;;;;;;;;4997705;28;20034;-89
2022/08/17 08:24:27;;;;;;;19.23;5.75;;;;;;;;;;4994004;28;19910;-82
2022/08/17 08:27:12;;;;;;;18.20;5.90;;;;;;;;;;4994741;28;20025;-84
2022/08/17 08:29:47;;;;;;;18.88;6.63;;;;;;;;;;4999494;28;20061;-81
2022/08/17 08:32:13;;;;;;;17.08;6.35;;;;;;;;;;4984160;28;20069;-83
2022/08/17 08:34:43;;;;;;;20.25;6.85;;;;;;;;;;5000273;28;20037;-84
2022/08/17 08:37:36;;;;;;;22.67;6.93;;;;;;;;;;4985498;28;20048;-83
2022/08/17 08:40:07;;;;;;;17.90;7.20;;;;;;;;;;4993784;28;20049;-81
2022/08/17 08:42:34;;;;;;;13.48;6.20;;;;;;;;;;4981636;28;20109;-82
2022/08/17 08:45:15;;;;;;;18.83;6.07;;;;;;;;;;4989807;28;20046;-83
2022/08/17 08:47:42;;;;;;;16.45;6.47;;;;;;;;;;4994122;28;20522;-84
2022/08/17 08:50:11;;;;;;;20.50;7.40;;;;;;;;;;4997714;28;20026;-84
2022/08/17 08:52:43;;;;;;;16.38;6.63;;;;;;;;;;4977836;28;20029;-78
2022/08/17 08:55:20;;;;;;;15.68;6.20;;;;;;;;;;4988811;28;20083;-87
2022/08/17 08:57:46;;;;;;;16.50;6.47;;;;;;;;;;4989797;28;20053;-80
2022/08/17 09:00:13;;;;;;;17.33;5.47;;;;;;;;;;4987713;28;20121;-83
2022/08/17 09:02:55;;;;;;;17.55;5.43;;;;;;;;;;4989421;28;20076;-79
2022/08/17 09:05:21;;;;;;;17.20;5.50;;;;;;;;;;4990308;28;20712;-85
2022/08/17 09:07:57;;;;;;;14.40;5.90;;;;;;;;;;4989011;28;20030;-79
2022/08/17 09:10:28;;;;;;;18.60;5.40;;;;;;;;;;4987605;28;20090;-77
2022/08/17 09:13:13;;;;;;;19.20;5.65;;;;;;;;;;4994573;28;20596;-77
2022/08/17 09:15:45;;;;;;;19.75;6.00;;;;;;;;;;4990420;28;20085;-78
2022/08/17 09:18:25;;;;;;;20.07;5.77;;;;;;;;;;4986510;28;20038;-76
2022/08/17 09:20:52;;;;;;;15.93;5.30;;;;;;;;;;4982674;28;20045;-77
2022/08/17 09:23:39;;;;;;;18.83;5.70;;;;;;;;;;4990999;28;20034;-77
2022/08/17 09:26:09;;;;;;;16.80;5.65;;;;;;;;;;4980967;28;20038;-79
2022/08/17 09:28:36;;;;;;;15.70;4.82;;;;;;;;;;4988173;28;20027;-77
2022/08/17 09:31:16;;;;;;;16.25;5.35;;;;;;;;;;4990125;28;20030;-78
2022/08/17 09:33:44;;;;;;;15.27;5.22;;;;;;;;;;4987905;28;20370;-78
2022/08/17 09:36:30;;;;;;;16.70;4.90;;;;;;;;;;4987128;28;20707;-79
2022/08/17 09:39:01;;;;;;;12.18;4.82;;;;;;;;;;4991003;28;20317;-78
2022/08/17 09:41:46;;;;;;;18.52;5.45;;;;;;;;;;4991152;28;20041;-79
2022/08/17 09:44:16;;;;;;;17.30;5.43;;;;;;;;;;4987722;28;20026;-78
2022/08/17 09:46:48;;;;;;;19.42;5.25;;;;;;;;;;4988471;28;20069;-79
2022/08/17 09:49:20;;;;;;;17.77;5.28;;;;;;;;;;4989231;28;20652;-78
2022/08/17 09:51:54;;;;;;;18.25;5.70;;;;;;;;;;4986942;28;20026;-79
2022/08/17 09:54:26;;;;;;;17.10;5.55;;;;;;;;;;4970346;28;20841;-80
2022/08/17 09:57:00;;;;;;;18.13;5.88;;;;;;;;;;4987250;28;20058;-78
2022/08/17 09:59:43;;;;;;;14.30;5.55;;;;;;;;;;4987729;28;20045;-78
2022/08/17 10:02:19;;;;;;;23.75;6.47;;;;;;;;;;4967167;28;20042;-79
2022/08/17 10:04:58;;;;;;;18.67;5.38;;;;;;;;;;4985011;28;20028;-78
2022/08/17 10:07:24;;;;;;;16.90;5.65;;;;;;;;;;4987481;28;20029;-76
2022/08/17 10:10:11;;;;;;;21.13;6.03;;;;;;;;;;4986349;28;20100;-79
2022/08/17 10:12:37;;;;;;;22.17;5.95;;;;;;;;;;4980874;28;20033;-78
2022/08/17 10:15:06;;;;;;;13.88;4.45;;;;;;;;;;4984416;28;20022;-80
2022/08/17 10:17:33;;;;;;;17.35;5.32;;;;;;;;;;4989219;28;20374;-77
2022/08/17 10:20:06;;;;;;;18.42;5.28;;;;;;;;;;4989859;28;20048;-80
2022/08/17 10:28:14;;;;;;;15.50;5.40;;;;;;;;;;4990290;28;20033;-80
2022/08/17 10:30:51;;;;;;;23.58;6.32;;;;;;;;;;4993946;28;20029;-80
2022/08/17 10:33:22;;;;;;;14.23;5.97;;;;;;;;;;4989722;28;20378;-80
2022/08/17 10:35:51;;;;;;;17.13;6.30;;;;;;;;;;4989980;28;20553;-80
2022/08/17 10:38:35;;;;;;;18.10;5.15;;;;;;;;;;4989932;28;20033;-79
2022/08/17 10:41:13;;;;;;;11.02;4.82;;;;;;;;;;4991039;28;20409;-79
2022/08/17 10:43:46;;;;;;;16.83;5.15;;;;;;;;;;4992392;28;20035;-81
2022/08/17 10:46:17;;;;;;;15.10;5.18;;;;;;;;;;4987885;28;20027;-80
2022/08/17 10:48:43;;;;;;;;;;;;;;;;;;4993146;28;20021;-79
2022/08/17 10:51:28;;;;;;;15.13;5.40;;;;;;;;;;4995420;28;19981;-81
2022/08/17 10:53:55;;;;;;;16.17;5.55;;;;;;;;;;4997950;28;20030;-80
2022/08/17 10:56:22;;;;;;;16.40;5.25;;;;;;;;;;4991855;28;20037;-79
2022/08/17 10:58:52;;;;;;;18.45;5.47;;;;;;;;;;4993257;28;20092;-80
2022/08/17 11:01:21;;;;;;;22.17;5.57;;;;;;;;;;5000486;28;20026;-76
2022/08/17 11:03:52;;;;;;;17.10;5.13;;;;;;;;;;4981332;28;20367;-77
2022/08/17 11:06:41;;;;;;;16.65;4.85;;;;;;;;;;4995224;28;20050;-80
2022/08/17 11:09:19;;;;;;;14.38;5.68;;;;;;;;;;4980628;28;20052;-82
2022/08/17 11:12:05;;;;;;;20.35;5.57;;;;;;;;;;4985412;28;20058;-78
2022/08/17 11:14:34;;;;;;;14.90;4.25;;;;;;;;;;4980165;28;20499;-77
2022/08/17 11:17:00;;;;;;;15.15;4.78;;;;;;;;;;4992535;28;20049;-76
2022/08/17 11:19:45;;;;;;;20.30;5.03;;;;;;;;;;4993505;28;20046;-77
2022/08/17 11:22:15;;;;;;;21.08;5.25;;;;;;;;;;4974329;28;20038;-77
2022/08/17 11:24:50;;;;;;;20.35;5.15;;;;;;;;;;4995993;28;20030;-73
2022/08/17 11:27:33;;;;;;;14.43;4.25;;;;;;;;;;4989084;28;20085;-76
2022/08/17 11:30:10;;;;;;;20.05;5.63;;;;;;;;;;4977246;28;20064;-77
2022/08/17 11:32:36;;;;;;;12.45;4.72;;;;;;;;;;4988927;28;20026;-76
2022/08/17 11:35:28;;;;;;;20.15;5.15;;;;;;;;;;4991870;28;20588;-76
2022/08/17 11:38:19;;;;;;;16.75;5.20;;;;;;;;;;4988397;28;20153;-76
2022/08/17 11:40:55;;;;;;;14.88;4.82;;;;;;;;;;4990812;28;20040;-76
2022/08/17 11:43:28;;;;;;;20.65;5.75;;;;;;;;;;4999205;28;20056;-76
2022/08/17 11:45:54;;;;;;;17.88;6.25;;;;;;;;;;4993737;28;20705;-77
2022/08/17 11:51:45;;;;;;;12.90;5.75;;;;;;;;;;4996362;28;20049;-76
2022/08/17 11:54:31;;;;;;;26.17;6.85;;;;;;;;;;4996422;28;20029;-77
2022/08/17 11:56:58;;;;;;;18.17;6.45;;;;;;;;;;4992288;28;20033;-79
2022/08/17 11:59:42;;;;;;;21.52;6.55;;;;;;;;;;4995890;28;20049;-80
2022/08/17 12:02:11;;;;;;;22.40;5.85;;;;;;;;;;4966643;28;20038;-77
2022/08/17 12:04:37;;;;;;;15.55;6.05;;;;;;;;;;4991301;28;20033;-77
2022/08/17 12:07:07;;;;;;;20.98;6.45;;;;;;;;;;4994547;28;20084;-76
2022/08/17 12:09:33;;;;;;;20.05;6.43;;;;;;;;;;4990956;28;20026;-77
2022/08/17 12:12:11;;;;;;;18.08;6.10;;;;;;;;;;4992454;28;20032;-76
2022/08/17 12:14:39;;;;;;;16.67;6.00;;;;;;;;;;4997808;28;20564;-77
2022/08/17 12:17:09;;;;;;;17.40;5.90;;;;;;;;;;4996976;28;20425;-76
2022/08/17 12:19:36;;;;;;;20.20;5.43;;;;;;;;;;4993947;28;20050;-77
2022/08/17 12:22:05;;;;;;;17.20;5.78;;;;;;;;;;4997018;28;20034;-77
2022/08/17 12:24:38;;;;;;;22.83;6.15;;;;;;;;;;4994794;28;20351;-76
2022/08/17 12:27:05;;;;;;;16.60;5.32;;;;;;;;;;4994497;28;20034;-76
2022/08/17 12:29:32;;;;;;;17.13;5.57;;;;;;;;;;4991712;28;20034;-77
2022/08/17 12:32:00;;;;;;;16.50;5.32;;;;;;;;;;4996916;28;20093;-76
2022/08/17 12:34:39;;;;;;;19.58;5.22;;;;;;;;;;4977256;28;20022;-76
2022/08/17 12:37:17;;;;;;;14.07;5.20;;;;;;;;;;4980400;28;20593;-79
2022/08/17 12:39:50;;;;;;;16.00;4.95;;;;;;;;;;4990416;28;20053;-80
2022/08/17 12:42:23;;;;;;;22.15;5.63;;;;;;;;;;4990091;28;20366;-79
2022/08/17 12:44:50;;;;;;;16.98;4.90;;;;;;;;;;4988283;28;20033;-78
2022/08/17 12:47:17;;;;;;;21.70;5.00;;;;;;;;;;4989158;28;20025;-79
2022/08/17 12:49:45;;;;;;;14.32;4.57;;;;;;;;;;4985939;28;20097;-78
2022/08/17 12:52:25;;;;;;;18.85;4.80;;;;;;;;;;4990772;28;20095;-78
2022/08/17 12:54:54;;;;;;;22.60;5.93;;;;;;;;;;4986900;28;20743;-79
2022/08/17 12:57:21;;;;;;;18.05;4.78;;;;;;;;;;4977675;28;20264;-78
2022/08/17 12:59:50;;;;;;;12.20;4.85;;;;;;;;;;4988241;28;20093;-77
2022/08/17 13:02:21;;;;;;;18.00;4.28;;;;;;;;;;4989309;28;20040;-78
2022/08/17 13:04:49;;;;;;;13.55;3.97;;;;;;;;;;4989213;28;20018;-78
2022/08/17 13:07:25;;;;;;;12.38;4.75;;;;;;;;;;4993159;28;20084;-78
2022/08/17 13:09:52;;;;;;;18.90;4.90;;;;;;;;;;4986762;28;20375;-78
2022/08/17 13:12:25;;;;;;;16.88;5.13;;;;;;;;;;4969164;28;20390;-78
2022/08/17 13:14:51;;;;;;;14.63;5.10;;;;;;;;;;4988293;28;20022;-78
2022/08/17 13:17:25;;;;;;;15.25;4.75;;;;;;;;;;4988895;28;20027;-77
2022/08/17 13:19:51;;;;;;;16.00;4.85;;;;;;;;;;4988126;28;20690;-77
2022/08/17 13:22:21;;;;;;;22.17;4.90;;;;;;;;;;4986812;28;20050;-75
2022/08/17 13:24:52;;;;;;;15.77;5.35;;;;;;;;;;4987447;28;20026;-79
2022/08/17 13:27:19;;;;;;;;;;;;;;;;;;4987561;28;20038;-79
2022/08/17 13:29:45;;;;;;;23.08;5.00;;;;;;;;;;4990817;28;19921;-79
2022/08/17 13:32:12;;;;;;;20.83;4.97;;;;;;;;;;4988529;28;20788;-77
2022/08/17 13:34:42;;;;;;;19.50;4.70;;;;;;;;;;4983370;28;20038;-78
2022/08/17 13:37:31;;;;;;;18.88;4.93;;;;;;;;;;4990359;28;20029;-77
2022/08/17 13:40:06;;;;;;;15.35;4.72;;;;;;;;;;4984847;28;20112;-79
2022/08/17 13:42:37;;;;;;;16.85;5.00;;;;;;;;;;4984278;28;20626;-79
2022/08/17 13:45:24;;;;;;;18.02;5.32;;;;;;;;;;4989554;28;20032;-78
2022/08/17 13:48:03;;;;;;;11.35;4.50;;;;;;;;;;4987448;28;20030;-79
2022/08/17 13:50:29;;;;;;;21.92;5.25;;;;;;;;;;4989671;28;20034;-80
2022/08/17 13:52:57;;;;;;;15.65;5.40;;;;;;;;;;4983921;28;20521;-78
2022/08/17 13:55:24;;;;;;;21.20;5.25;;;;;;;;;;4989817;28;20041;-79
2022/08/17 13:57:51;;;;;;;14.30;5.07;;;;;;;;;;4989087;28;20049;-79
2022/08/17 14:00:18;;;;;;;13.07;4.88;;;;;;;;;;4993196;28;20474;-79
2022/08/17 14:02:44;;;;;;;14.60;5.20;;;;;;;;;;4990224;28;20029;-78
2022/08/17 14:05:10;;;;;;;16.83;5.03;;;;;;;;;;4984557;28;20113;-78
2022/08/17 14:07:37;;;;;;;12.45;4.32;;;;;;;;;;4990041;28;20092;-78
2022/08/17 14:10:09;;;;;;;14.77;4.57;;;;;;;;;;4986938;28;20398;-78
2022/08/17 14:12:37;;;;;;;18.33;5.00;;;;;;;;;;4988824;28;20598;-78
2022/08/17 14:15:04;;;;;;;22.02;5.38;;;;;;;;;;4991395;28;20032;-76
2022/08/17 14:17:30;;;;;;;16.17;4.75;;;;;;;;;;4979094;28;20446;-79
2022/08/17 14:19:57;;;;;;;21.40;5.10;;;;;;;;;;4987676;28;20047;-78
2022/08/17 14:22:26;;;;;;;15.02;4.18;;;;;;;;;;4966120;28;20042;-78
2022/08/17 14:24:52;;;;;;;17.38;4.95;;;;;;;;;;4985906;28;20015;-77
2022/08/17 14:27:19;;;;;;;16.92;4.63;;;;;;;;;;4986455;28;20026;-76
2022/08/17 14:29:46;;;;;;;17.23;4.57;;;;;;;;;;4990261;28;20081;-77
2022/08/17 14:32:40;;;;;;;15.00;5.25;;;;;;;;;;4984129;28;20097;-77
2022/08/17 14:35:06;;;;;;;14.02;4.85;;;;;;;;;;4981045;28;20038;-78
2022/08/17 14:37:33;;;;;;;18.80;5.00;;;;;;;;;;4986263;28;20604;-78
2022/08/17 14:40:00;;;;;;;22.58;5.72;;;;;;;;;;4987057;28;20681;-77
2022/08/17 14:42:30;;;;;;;21.50;5.15;;;;;;;;;;4985255;28;20034;-78
2022/08/17 14:44:57;;;;;;;16.73;4.93;;;;;;;;;;4987434;28;20038;-77
2022/08/17 14:47:25;;;;;;;14.45;4.53;;;;;;;;;;4987458;28;20029;-77
2022/08/17 14:49:51;;;;;;;21.90;5.85;;;;;;;;;;4985619;28;20857;-76
2022/08/17 14:52:20;;;;;;;20.85;5.05;;;;;;;;;;4986860;28;20412;-77
2022/08/17 14:54:50;;;;;;;18.98;4.63;;;;;;;;;;4985614;28;20657;-77
2022/08/17 14:57:17;;;;;;;12.30;4.85;;;;;;;;;;4988744;28;20030;-76
2022/08/17 14:59:43;;;;;;;17.77;5.05;;;;;;;;;;4986970;28;20019;-76
2022/08/17 15:02:09;;;;;;;23.17;4.93;;;;;;;;;;4986706;28;20049;-77
2022/08/17 15:04:36;;;;;;;13.32;4.78;;;;;;;;;;4987306;28;20054;-77
2022/08/17 15:07:02;;;;;;;18.67;4.97;;;;;;;;;;4990722;28;20462;-77
2022/08/17 15:09:29;;;;;;;19.75;4.55;;;;;;;;;;4993637;28;20380;-77
2022/08/17 15:11:56;;;;;;;19.10;5.55;;;;;;;;;;4987094;28;20033;-77
2022/08/17 15:14:22;;;;;;;16.98;5.40;;;;;;;;;;4993097;28;20108;-77
2022/08/17 15:16:48;;;;;;;19.40;4.63;;;;;;;;;;4990126;28;20321;-77
2022/08/17 15:19:14;;;;;;;16.25;5.00;;;;;;;;;;4990832;28;20041;-77